Time;durP1;ratioP1;P1;durP2;ratioP2;P2;SDS_P1;SDS_P2;PMS_P1;PMS_P2;Temp;Humidity;BMP_temperature;BMP_pressure;BME280_temperature;BME280_humidity;BME280_pressure;Samples;Min_cycle;Max_cycle;Signal;HPM_P1;HPM_P2
2022/03/31 00:00:29;;;;;;;11.80;10.00;;;10.10;86.80;;;;;;5055547;28;20425;-68
2022/03/31 00:02:56;;;;;;;11.57;10.27;;;10.10;86.60;;;;;;5055033;28;20421;-67
2022/03/31 00:05:22;;;;;;;12.60;11.30;;;10.20;86.60;;;;;;5055844;28;20505;-66
2022/03/31 00:07:52;;;;;;;11.80;10.47;;;10.20;86.30;;;;;;5055208;28;20460;-67
2022/03/31 00:10:23;;;;;;;12.17;11.00;;;10.20;86.00;;;;;;5054240;28;20176;-67
2022/03/31 00:12:50;;;;;;;12.13;10.20;;;10.30;86.00;;;;;;5054802;28;20913;-67
2022/03/31 00:15:16;;;;;;;12.17;10.50;;;10.20;86.00;;;;;;5055604;28;20465;-67
2022/03/31 00:17:42;;;;;;;13.37;9.97;;;10.20;85.80;;;;;;5055329;28;20415;-68
2022/03/31 00:20:10;;;;;;;11.33;10.23;;;10.20;85.70;;;;;;5055352;28;20468;-67
2022/03/31 00:22:36;;;;;;;13.80;10.57;;;10.30;86.10;;;;;;5055001;28;20493;-68
2022/03/31 00:25:03;;;;;;;11.50;9.67;;;10.10;85.60;;;;;;5055422;28;20440;-67
2022/03/31 00:27:29;;;;;;;11.83;10.10;;;10.30;86.80;;;;;;5055385;28;20413;-67
2022/03/31 00:29:55;;;;;;;12.13;10.83;;;10.20;86.00;;;;;;5054587;28;21250;-67
2022/03/31 00:32:22;;;;;;;12.27;10.67;;;10.20;85.10;;;;;;5055417;28;20175;-67
2022/03/31 00:34:48;;;;;;;13.03;9.77;;;10.20;84.90;;;;;;5054294;28;20206;-68
2022/03/31 00:37:13;;;;;;;11.80;10.20;;;10.10;84.90;;;;;;5055243;28;20756;-67
2022/03/31 00:39:39;;;;;;;10.43;9.53;;;10.20;85.70;;;;;;5054552;28;20179;-67
2022/03/31 00:42:06;;;;;;;10.90;9.53;;;10.20;85.40;;;;;;5055167;28;20241;-67
2022/03/31 00:44:32;;;;;;;12.43;9.67;;;10.20;85.70;;;;;;5054775;28;20930;-67
2022/03/31 00:46:58;;;;;;;10.90;9.00;;;10.20;85.60;;;;;;5054135;28;20415;-67
2022/03/31 00:49:25;;;;;;;11.37;9.30;;;10.20;86.20;;;;;;5054582;28;20421;-67
2022/03/31 00:51:53;;;;;;;10.13;9.13;;;10.20;86.00;;;;;;5054383;28;20171;-68
2022/03/31 00:54:22;;;;;;;12.80;10.60;;;10.30;86.30;;;;;;5054560;28;20463;-67
2022/03/31 00:56:49;;;;;;;10.33;9.33;;;10.20;86.00;;;;;;5054522;28;20420;-67
2022/03/31 00:59:16;;;;;;;10.27;9.27;;;10.20;85.80;;;;;;5054790;28;20412;-67
2022/03/31 01:01:44;;;;;;;10.73;9.70;;;10.10;85.70;;;;;;5052585;28;20435;-67
2022/03/31 01:04:11;;;;;;;13.97;9.87;;;10.00;85.80;;;;;;5054421;28;20421;-67
2022/03/31 01:06:37;;;;;;;11.53;9.90;;;9.80;87.90;;;;;;5054309;28;20414;-67
2022/03/31 01:09:05;;;;;;;15.37;10.50;;;9.70;88.40;;;;;;5055037;28;20477;-67
2022/03/31 01:11:32;;;;;;;13.70;10.40;;;9.50;89.40;;;;;;5054892;28;20444;-67
2022/03/31 01:13:58;;;;;;;11.20;9.77;;;9.30;90.40;;;;;;5053862;28;20820;-67
2022/03/31 01:16:24;;;;;;;12.87;11.57;;;9.20;91.00;;;;;;5054838;28;20459;-67
2022/03/31 01:18:51;;;;;;;11.20;10.00;;;9.20;91.30;;;;;;5054196;28;20416;-67
2022/03/31 01:21:17;;;;;;;12.40;9.30;;;9.10;91.60;;;;;;5054523;28;20459;-67
2022/03/31 01:23:44;;;;;;;11.90;10.00;;;9.40;92.00;;;;;;5053504;28;20852;-67
2022/03/31 01:26:10;;;;;;;15.73;10.53;;;9.40;92.50;;;;;;5054070;28;20498;-67
2022/03/31 01:28:43;;;;;;;13.80;10.10;;;9.30;92.20;;;;;;5054293;28;20418;-67
2022/03/31 01:31:10;;;;;;;12.43;9.80;;;9.30;92.30;;;;;;5054665;28;20184;-67
2022/03/31 01:33:37;;;;;;;11.30;9.77;;;9.00;92.60;;;;;;5054204;28;20420;-67
2022/03/31 01:36:04;;;;;;;13.63;11.17;;;9.00;93.00;;;;;;5053483;28;20452;-67
2022/03/31 01:38:30;;;;;;;13.30;10.13;;;9.10;93.30;;;;;;5052827;28;20428;-67
2022/03/31 01:40:57;;;;;;;12.77;11.37;;;9.00;93.50;;;;;;5052187;28;20409;-68
2022/03/31 01:43:23;;;;;;;20.80;11.20;;;8.90;93.80;;;;;;5054101;28;20491;-67
2022/03/31 01:45:49;;;;;;;13.70;11.60;;;8.90;94.40;;;;;;5053011;28;20424;-67
2022/03/31 01:48:16;;;;;;;12.10;10.70;;;9.20;94.90;;;;;;5053885;28;20174;-67
2022/03/31 01:50:42;;;;;;;11.80;10.10;;;9.10;94.90;;;;;;5053316;28;20490;-68
2022/03/31 01:53:08;;;;;;;15.10;12.43;;;9.10;94.70;;;;;;5053765;28;20420;-67
2022/03/31 01:55:34;;;;;;;12.43;11.23;;;9.10;94.90;;;;;;5053665;28;20800;-67
2022/03/31 01:58:00;;;;;;;15.67;11.00;;;9.10;95.40;;;;;;5053377;28;20727;-67
2022/03/31 02:00:26;;;;;;;13.23;11.10;;;9.10;95.60;;;;;;5053866;28;20244;-67
2022/03/31 02:02:51;;;;;;;13.33;10.70;;;8.80;95.10;;;;;;5051917;28;20256;-68
2022/03/31 02:05:17;;;;;;;13.17;11.87;;;9.20;95.40;;;;;;5053221;28;20189;-67
2022/03/31 02:07:43;;;;;;;12.47;11.00;;;9.10;95.60;;;;;;5051049;28;20182;-67
2022/03/31 02:10:10;;;;;;;16.63;12.67;;;9.00;96.00;;;;;;5053479;28;20174;-67
2022/03/31 02:12:36;;;;;;;14.90;11.77;;;9.00;96.30;;;;;;5053451;28;20182;-67
2022/03/31 02:15:03;;;;;;;15.30;12.80;;;8.80;96.50;;;;;;5051451;28;20517;-67
2022/03/31 02:17:29;;;;;;;15.67;12.37;;;9.10;96.50;;;;;;5052103;28;20179;-67
2022/03/31 02:19:55;;;;;;;13.97;11.67;;;9.20;96.60;;;;;;5052227;28;20750;-68
2022/03/31 02:22:20;;;;;;;14.00;12.50;;;9.20;96.70;;;;;;5053377;28;20171;-67
2022/03/31 02:24:48;;;;;;;16.03;11.73;;;9.30;96.80;;;;;;5051135;28;20303;-68
2022/03/31 02:27:14;;;;;;;15.23;11.80;;;9.20;96.70;;;;;;5053176;28;20170;-67
2022/03/31 02:29:40;;;;;;;17.80;12.13;;;9.30;97.40;;;;;;5053005;28;20456;-67
2022/03/31 02:32:07;;;;;;;14.33;11.70;;;9.30;97.10;;;;;;5052475;28;20464;-67
2022/03/31 02:34:34;;;;;;;13.50;12.00;;;9.20;97.10;;;;;;5052973;28;20215;-67
2022/03/31 02:37:00;;;;;;;13.73;12.23;;;9.20;97.10;;;;;;5051197;28;20912;-67
2022/03/31 02:39:28;;;;;;;16.00;12.93;;;9.20;97.50;;;;;;5052963;28;20416;-67
2022/03/31 02:41:57;;;;;;;13.63;12.23;;;9.30;97.40;;;;;;5052316;28;20423;-67
2022/03/31 02:44:23;;;;;;;14.67;12.30;;;9.30;97.20;;;;;;5052933;28;20499;-67
2022/03/31 02:46:51;;;;;;;16.40;13.27;;;9.30;97.40;;;;;;5051133;28;20451;-67
2022/03/31 02:49:17;;;;;;;14.27;12.73;;;9.20;97.10;;;;;;5052788;28;20412;-67
2022/03/31 02:51:43;;;;;;;15.60;12.33;;;9.20;97.20;;;;;;5052797;28;20404;-67
2022/03/31 02:56:53;;;;;;;15.53;12.40;;;9.20;97.90;;;;;;5052241;28;20405;-67
2022/03/31 02:59:20;;;;;;;14.47;12.97;;;9.20;98.00;;;;;;5052265;28;20778;-68
2022/03/31 03:01:46;;;;;;;14.30;12.50;;;9.20;98.10;;;;;;5052086;28;20466;-68
2022/03/31 03:04:12;;;;;;;16.07;13.67;;;9.30;98.90;;;;;;5052612;28;20428;-67
2022/03/31 03:06:38;;;;;;;16.30;13.17;;;9.20;99.10;;;;;;5052570;28;20897;-67
2022/03/31 03:09:05;;;;;;;16.33;13.30;;;9.00;99.10;;;;;;5051660;28;20775;-67
2022/03/31 03:11:31;;;;;;;18.20;13.97;;;9.30;99.30;;;;;;5052515;28;20411;-67
2022/03/31 03:13:57;;;;;;;16.60;12.80;;;9.30;99.40;;;;;;5051795;28;20417;-67
2022/03/31 03:16:24;;;;;;;14.67;13.07;;;9.00;99.00;;;;;;5052896;28;20516;-67
2022/03/31 03:18:52;;;;;;;18.83;14.27;;;9.30;98.80;;;;;;5051945;28;20779;-68
2022/03/31 03:21:19;;;;;;;17.63;14.90;;;9.30;98.80;;;;;;5050912;28;20457;-67
2022/03/31 03:23:46;;;;;;;17.53;14.07;;;9.20;98.70;;;;;;5052555;28;20428;-67
2022/03/31 03:26:12;;;;;;;15.43;13.93;;;9.30;98.70;;;;;;5052580;28;20412;-67
2022/03/31 03:28:38;;;;;;;15.50;13.87;;;9.20;98.70;;;;;;5052388;28;20408;-67
2022/03/31 03:31:05;;;;;;;15.83;14.13;;;9.20;99.00;;;;;;5051891;28;20499;-67
2022/03/31 03:33:31;;;;;;;16.40;13.37;;;9.20;99.20;;;;;;5052374;28;20588;-67
2022/03/31 03:35:57;;;;;;;22.37;14.47;;;9.20;99.10;;;;;;5051682;28;20448;-67
2022/03/31 03:38:23;;;;;;;17.00;13.90;;;9.10;98.90;;;;;;5052059;28;20412;-67
2022/03/31 03:40:49;;;;;;;19.43;14.63;;;9.30;99.40;;;;;;5051411;28;20431;-68
2022/03/31 03:43:15;;;;;;;16.23;13.97;;;9.10;99.50;;;;;;5052265;28;20224;-67
2022/03/31 03:45:40;;;;;;;17.53;13.43;;;9.10;99.70;;;;;;5052194;28;20174;-67
2022/03/31 03:48:07;;;;;;;17.70;15.00;;;9.10;99.90;;;;;;5051593;28;20181;-68
2022/03/31 03:50:35;;;;;;;16.87;13.70;;;9.10;99.90;;;;;;5052268;28;20177;-67
2022/03/31 03:53:04;;;;;;;15.93;13.87;;;9.10;99.90;;;;;;5051526;28;20481;-67
2022/03/31 03:55:34;;;;;;;18.30;16.40;;;9.10;99.90;;;;;;5052111;28;20459;-67
2022/03/31 03:58:00;;;;;;;20.57;16.57;;;9.10;99.90;;;;;;5051528;28;20412;-67
2022/03/31 04:00:27;;;;;;;19.47;14.60;;;9.30;99.90;;;;;;5051845;28;20412;-67
2022/03/31 04:02:53;;;;;;;19.07;14.93;;;9.30;99.90;;;;;;5051456;28;20415;-67
2022/03/31 04:05:20;;;;;;;17.30;13.63;;;9.10;99.90;;;;;;5051974;28;20413;-67
2022/03/31 04:07:46;;;;;;;16.30;14.33;;;9.10;99.90;;;;;;5051996;28;20492;-67
2022/03/31 04:10:12;;;;;;;16.20;14.50;;;9.10;99.90;;;;;;5051382;28;20507;-67
2022/03/31 04:12:39;;;;;;;19.70;15.13;;;9.10;99.90;;;;;;5051982;28;20939;-67
2022/03/31 04:15:06;;;;;;;20.80;14.23;;;9.20;99.90;;;;;;5050130;28;20452;-67
2022/03/31 04:17:33;;;;;;;17.33;15.30;;;9.20;99.90;;;;;;5051896;28;20418;-67
2022/03/31 04:19:58;;;;;;;17.63;15.30;;;9.20;99.90;;;;;;5051103;28;20448;-68
2022/03/31 04:22:25;;;;;;;20.67;15.80;;;9.30;99.90;;;;;;5050646;28;20596;-67
2022/03/31 04:24:50;;;;;;;19.73;15.17;;;9.30;99.90;;;;;;5050972;28;20408;-68
2022/03/31 04:27:16;;;;;;;22.10;15.30;;;9.20;99.90;;;;;;5055490;28;20544;-67
2022/03/31 04:29:42;;;;;;;18.17;14.93;;;9.40;99.90;;;;;;5055444;28;20200;-67
2022/03/31 04:32:08;;;;;;;18.67;14.90;;;9.20;99.90;;;;;;5054809;28;20435;-67
2022/03/31 04:34:37;;;;;;;20.70;17.30;;;9.20;99.90;;;;;;5055013;28;20597;-67
2022/03/31 04:37:03;;;;;;;19.33;15.30;;;9.20;99.90;;;;;;5054769;28;20827;-67
2022/03/31 04:39:28;;;;;;;19.40;16.47;;;9.20;99.90;;;;;;5055462;28;20416;-67
2022/03/31 04:41:54;;;;;;;20.27;16.27;;;9.20;99.90;;;;;;5054358;28;20420;-67
2022/03/31 04:44:20;;;;;;;19.60;17.50;;;9.00;99.90;;;;;;5054851;28;20247;-68
2022/03/31 04:46:49;;;;;;;21.23;17.10;;;9.20;99.90;;;;;;5055016;28;20405;-68
2022/03/31 04:49:15;;;;;;;23.80;15.43;;;9.20;99.90;;;;;;5053795;28;20594;-67
2022/03/31 04:51:46;;;;;;;19.27;16.67;;;9.30;99.90;;;;;;5054743;28;20412;-67
2022/03/31 04:54:12;;;;;;;20.83;18.63;;;8.90;99.90;;;;;;5054278;28;20401;-67
2022/03/31 04:56:39;;;;;;;18.53;16.60;;;9.20;99.90;;;;;;5055108;28;20418;-66
2022/03/31 04:59:05;;;;;;;18.40;15.97;;;9.20;99.90;;;;;;5054241;28;20177;-66
2022/03/31 05:01:30;;;;;;;21.47;16.90;;;9.20;99.90;;;;;;5054979;28;20897;-66
2022/03/31 05:03:56;;;;;;;20.53;15.87;;;9.30;99.90;;;;;;5053924;28;20428;-67
2022/03/31 05:06:22;;;;;;;18.00;15.90;;;9.00;99.90;;;;;;5054713;28;20173;-66
2022/03/31 05:08:48;;;;;;;19.60;17.50;;;9.20;99.90;;;;;;5054627;28;20227;-66
2022/03/31 05:11:14;;;;;;;22.93;17.93;;;9.20;99.90;;;;;;5054293;28;20428;-66
2022/03/31 05:13:40;;;;;;;20.60;16.00;;;9.20;99.90;;;;;;5054424;28;20412;-67
2022/03/31 05:16:05;;;;;;;17.67;15.67;;;9.20;99.90;;;;;;5053827;28;20208;-66
2022/03/31 05:18:32;;;;;;;16.83;15.00;;;9.20;99.90;;;;;;5053341;28;20200;-66
2022/03/31 05:20:58;;;;;;;18.37;15.80;;;9.40;99.90;;;;;;5053703;28;20217;-67
2022/03/31 05:23:23;;;;;;;20.53;15.70;;;9.20;99.90;;;;;;5054368;28;20420;-67
2022/03/31 05:25:49;;;;;;;20.50;15.80;;;9.20;99.90;;;;;;5054483;28;20622;-67
2022/03/31 05:28:16;;;;;;;18.30;16.33;;;9.20;99.90;;;;;;5053948;28;20174;-66
2022/03/31 05:30:42;;;;;;;18.93;16.13;;;9.20;99.90;;;;;;5054135;28;20408;-66
2022/03/31 05:33:08;;;;;;;21.13;17.47;;;9.20;99.90;;;;;;5053562;28;20427;-66
2022/03/31 05:35:34;;;;;;;20.00;16.17;;;9.20;99.90;;;;;;5053746;28;20996;-67
2022/03/31 05:38:01;;;;;;;20.20;15.77;;;9.20;99.90;;;;;;5052725;28;20420;-67
2022/03/31 05:40:27;;;;;;;23.73;19.23;;;9.10;99.90;;;;;;5053757;28;20451;-66
2022/03/31 05:42:55;;;;;;;22.77;17.27;;;9.10;99.90;;;;;;5053972;28;20819;-67
2022/03/31 05:45:21;;;;;;;19.13;15.60;;;9.10;99.90;;;;;;5053945;28;20462;-67
2022/03/31 05:47:47;;;;;;;19.77;17.60;;;9.10;99.90;;;;;;5053922;28;20412;-67
2022/03/31 05:50:13;;;;;;;20.07;16.47;;;8.80;99.90;;;;;;5053238;28;20885;-67
2022/03/31 05:52:42;;;;;;;20.37;17.10;;;9.10;99.90;;;;;;5053763;28;20180;-67
2022/03/31 05:55:11;;;;;;;20.00;18.00;;;9.10;99.90;;;;;;5051515;28;20467;-67
2022/03/31 05:57:37;;;;;;;18.60;15.63;;;9.10;99.90;;;;;;5053414;28;20489;-66
2022/03/31 06:00:13;;;;;;;20.67;16.90;;;9.00;99.90;;;;;;5052919;28;20895;-67
2022/03/31 06:02:40;;;;;;;21.47;18.07;;;9.10;99.90;;;;;;5053710;28;20404;-67
2022/03/31 06:05:06;;;;;;;21.00;17.17;;;9.10;99.90;;;;;;5052854;28;20438;-67
2022/03/31 06:07:32;;;;;;;20.17;17.33;;;9.10;99.90;;;;;;5052339;28;20463;-67
2022/03/31 06:09:58;;;;;;;21.17;18.97;;;9.10;99.90;;;;;;5052909;28;20908;-67
2022/03/31 06:12:23;;;;;;;20.27;15.97;;;9.10;99.90;;;;;;5053758;28;20263;-66
2022/03/31 06:14:49;;;;;;;21.00;19.00;;;9.10;99.90;;;;;;5053275;28;20936;-67
2022/03/31 06:17:15;;;;;;;17.57;15.10;;;9.10;99.90;;;;;;5051634;28;20174;-67
2022/03/31 06:19:41;;;;;;;20.50;16.77;;;9.10;99.90;;;;;;5053268;28;20409;-66
2022/03/31 06:22:08;;;;;;;20.97;18.80;;;9.10;99.90;;;;;;5052865;28;20257;-67
2022/03/31 06:24:34;;;;;;;18.43;15.80;;;8.80;99.90;;;;;;5053268;28;20200;-67
2022/03/31 06:27:00;;;;;;;20.43;14.80;;;9.10;99.90;;;;;;5052597;28;20892;-67
2022/03/31 06:29:27;;;;;;;19.00;16.43;;;9.20;99.90;;;;;;5053144;28;20452;-67
2022/03/31 06:31:53;;;;;;;20.20;15.40;;;9.10;99.90;;;;;;5053096;28;20417;-67
2022/03/31 06:34:23;;;;;;;19.80;15.20;;;9.20;99.90;;;;;;5052370;28;20801;-68
2022/03/31 06:36:49;;;;;;;20.10;16.03;;;9.20;99.90;;;;;;5053102;28;20421;-66
2022/03/31 06:39:15;;;;;;;19.13;15.90;;;9.30;99.90;;;;;;5052379;28;20417;-68
2022/03/31 06:41:44;;;;;;;19.93;16.20;;;8.80;99.90;;;;;;5053048;28;20408;-68
2022/03/31 06:44:13;;;;;;;17.70;15.47;;;9.30;99.90;;;;;;5052026;28;20812;-68
2022/03/31 06:46:42;;;;;;;19.97;16.57;;;8.90;99.90;;;;;;5052839;28;20429;-68
2022/03/31 06:49:09;;;;;;;19.80;15.17;;;9.40;99.90;;;;;;5051900;28;20448;-68
2022/03/31 06:51:35;;;;;;;16.07;14.40;;;9.40;99.90;;;;;;5052811;28;20408;-67
2022/03/31 06:54:02;;;;;;;17.20;15.10;;;9.40;99.90;;;;;;5052088;28;20897;-68
2022/03/31 06:56:29;;;;;;;18.63;16.47;;;9.50;99.90;;;;;;5051694;28;20829;-69
2022/03/31 06:58:55;;;;;;;18.23;15.80;;;9.50;99.90;;;;;;5053047;28;20507;-67
2022/03/31 07:01:21;;;;;;;20.30;14.53;;;9.50;99.90;;;;;;5052252;28;20507;-68
2022/03/31 07:03:47;;;;;;;17.67;15.80;;;9.50;99.90;;;;;;5052872;28;20424;-68
2022/03/31 07:06:14;;;;;;;18.60;14.60;;;9.70;99.90;;;;;;5052011;28;20456;-68
2022/03/31 07:08:39;;;;;;;19.23;16.20;;;9.50;99.90;;;;;;5052610;28;20404;-68
2022/03/31 07:11:06;;;;;;;18.53;16.60;;;9.50;99.90;;;;;;5051655;28;20408;-68
2022/03/31 07:13:32;;;;;;;19.80;16.60;;;9.50;99.90;;;;;;5052515;28;20172;-68
2022/03/31 07:15:57;;;;;;;19.17;15.40;;;9.50;99.90;;;;;;5052453;28;20460;-68
2022/03/31 07:18:23;;;;;;;20.83;15.30;;;9.40;99.90;;;;;;5051799;28;20555;-68
2022/03/31 07:20:52;;;;;;;20.03;15.63;;;9.30;99.90;;;;;;5052480;28;20226;-68
2022/03/31 07:23:19;;;;;;;17.83;14.27;;;9.60;99.90;;;;;;5051547;28;20412;-67
2022/03/31 07:25:45;;;;;;;18.23;15.23;;;9.70;99.90;;;;;;5052409;28;20431;-68
2022/03/31 07:28:10;;;;;;;19.10;13.77;;;9.60;99.90;;;;;;5051799;28;20403;-68
2022/03/31 07:30:36;;;;;;;18.70;16.37;;;9.70;99.90;;;;;;5052380;28;20175;-68
2022/03/31 07:33:03;;;;;;;19.53;13.67;;;9.70;99.90;;;;;;5051749;28;20173;-68
2022/03/31 07:35:31;;;;;;;15.30;12.80;;;9.70;99.90;;;;;;5052130;28;20194;-68
2022/03/31 07:37:58;;;;;;;17.07;13.27;;;9.70;99.90;;;;;;5052264;28;20421;-68
2022/03/31 07:40:25;;;;;;;16.60;14.90;;;9.70;99.90;;;;;;5051379;28;20768;-68
2022/03/31 07:42:52;;;;;;;16.17;13.63;;;9.60;99.90;;;;;;5052281;28;20417;-67
2022/03/31 07:45:19;;;;;;;17.53;13.17;;;9.30;99.90;;;;;;5051335;28;20852;-67
2022/03/31 07:47:45;;;;;;;18.93;14.17;;;9.30;99.90;;;;;;5052217;28;20412;-68
2022/03/31 07:50:13;;;;;;;17.97;14.07;;;9.30;99.90;;;;;;5051322;28;20409;-68
2022/03/31 07:52:40;;;;;;;16.50;13.30;;;9.40;99.90;;;;;;5052165;28;20565;-68
2022/03/31 07:55:07;;;;;;;18.23;15.20;;;9.50;99.90;;;;;;5051169;28;20931;-68
2022/03/31 07:57:33;;;;;;;16.30;14.57;;;9.50;99.90;;;;;;5052108;28;20416;-68
2022/03/31 08:00:00;;;;;;;21.90;15.17;;;9.60;99.90;;;;;;5053044;28;20438;-67
2022/03/31 08:02:26;;;;;;;18.57;15.23;;;9.50;99.90;;;;;;5055298;28;20416;-68
2022/03/31 08:04:53;;;;;;;17.50;14.33;;;9.60;99.90;;;;;;5056035;28;20416;-67
2022/03/31 08:07:19;;;;;;;18.03;15.07;;;9.90;99.90;;;;;;5055235;28;20409;-67
2022/03/31 08:09:45;;;;;;;16.93;13.47;;;9.70;99.90;;;;;;5055697;28;20489;-67
2022/03/31 08:12:11;;;;;;;16.10;12.30;;;9.40;99.90;;;;;;5055193;28;20504;-67
2022/03/31 08:14:37;;;;;;;18.13;13.40;;;9.70;99.90;;;;;;5055555;28;20556;-68
2022/03/31 08:17:03;;;;;;;18.43;13.57;;;9.60;99.90;;;;;;5055695;28;20182;-67
2022/03/31 08:19:32;;;;;;;18.37;13.07;;;9.60;99.90;;;;;;5056002;28;20416;-66
2022/03/31 08:22:02;;;;;;;17.10;13.90;;;9.70;99.90;;;;;;5055103;28;21013;-68
2022/03/31 08:24:29;;;;;;;15.63;13.57;;;9.70;99.90;;;;;;5055166;28;20435;-68
2022/03/31 08:27:00;;;;;;;14.67;12.50;;;9.70;99.90;;;;;;5054223;28;20485;-67
2022/03/31 08:29:25;;;;;;;17.20;12.30;;;9.80;99.90;;;;;;5055039;28;20442;-67
2022/03/31 08:31:53;;;;;;;20.07;13.40;;;9.90;99.90;;;;;;5055549;28;20418;-68
2022/03/31 08:34:19;;;;;;;17.00;13.20;;;9.90;99.90;;;;;;5054469;28;20412;-68
2022/03/31 08:36:45;;;;;;;16.47;13.60;;;10.20;99.90;;;;;;5055327;28;20417;-67
2022/03/31 08:39:10;;;;;;;15.40;12.37;;;10.00;99.90;;;;;;5054662;28;20176;-68
2022/03/31 08:41:36;;;;;;;17.03;12.93;;;9.90;99.90;;;;;;5055154;28;20179;-67
2022/03/31 08:44:02;;;;;;;15.33;12.77;;;9.90;99.90;;;;;;5055225;28;20209;-67
2022/03/31 08:46:34;;;;;;;16.63;12.63;;;9.90;99.90;;;;;;5054474;28;20257;-69
2022/03/31 08:49:00;;;;;;;15.57;13.20;;;9.60;99.90;;;;;;5053778;28;20805;-68
2022/03/31 08:51:26;;;;;;;16.20;12.50;;;10.00;99.90;;;;;;5054424;28;20443;-67
2022/03/31 08:53:52;;;;;;;14.40;12.50;;;10.00;99.90;;;;;;5055255;28;20467;-68
2022/03/31 08:56:18;;;;;;;16.27;11.70;;;9.90;99.90;;;;;;5054277;28;20929;-67
2022/03/31 08:58:45;;;;;;;17.80;13.20;;;10.20;99.90;;;;;;5055096;28;20643;-67
2022/03/31 09:01:14;;;;;;;15.20;11.97;;;10.20;99.90;;;;;;5054542;28;20521;-68
2022/03/31 09:03:41;;;;;;;17.67;13.37;;;10.30;99.90;;;;;;5054770;28;20419;-68
2022/03/31 09:06:10;;;;;;;15.80;12.03;;;10.30;99.90;;;;;;5053866;28;20761;-68
2022/03/31 09:08:36;;;;;;;18.77;12.87;;;10.30;99.90;;;;;;5054730;28;20411;-68
2022/03/31 09:11:03;;;;;;;16.10;12.20;;;10.30;99.80;;;;;;5054460;28;20389;-68
2022/03/31 09:13:40;;;;;;;15.23;12.10;;;10.40;99.80;;;;;;5053995;28;20729;-68
2022/03/31 09:16:10;;;;;;;17.37;13.50;;;10.60;99.90;;;;;;5054582;28;20447;-67
2022/03/31 09:18:38;;;;;;;15.20;12.10;;;10.40;99.90;;;;;;5054722;28;20419;-67
2022/03/31 09:21:06;;;;;;;18.30;12.87;;;10.40;99.90;;;;;;5054164;28;20619;-67
2022/03/31 09:23:44;;;;;;;14.30;10.93;;;10.30;99.90;;;;;;5054982;28;20417;-68
2022/03/31 09:26:13;;;;;;;14.97;11.57;;;10.40;99.90;;;;;;5053828;28;20479;-68
2022/03/31 09:28:40;;;;;;;18.90;12.37;;;10.40;99.90;;;;;;5054025;28;20828;-67
2022/03/31 09:31:10;;;;;;;16.70;12.00;;;10.40;99.90;;;;;;5053518;28;20515;-67
2022/03/31 09:33:48;;;;;;;17.37;12.97;;;10.30;99.50;;;;;;5053602;28;20409;-67
2022/03/31 09:36:22;;;;;;;15.47;12.33;;;10.50;99.70;;;;;;5052418;28;20515;-67
2022/03/31 09:39:01;;;;;;;17.30;13.07;;;10.40;99.50;;;;;;5054116;28;20964;-68
2022/03/31 09:41:29;;;;;;;16.03;12.60;;;10.30;98.60;;;;;;5053467;28;20512;-67
2022/03/31 09:43:57;;;;;;;19.93;13.47;;;10.30;99.20;;;;;;5053807;28;20488;-67
2022/03/31 09:46:35;;;;;;;16.57;13.27;;;10.00;99.60;;;;;;5053382;28;20409;-68
2022/03/31 09:49:21;;;;;;;18.20;13.97;;;10.40;99.90;;;;;;5053933;28;20409;-68
2022/03/31 09:51:55;;;;;;;18.57;13.13;;;10.40;99.90;;;;;;5054051;28;20925;-67
2022/03/31 09:54:23;;;;;;;17.50;13.80;;;10.60;99.90;;;;;;5052319;28;20414;-68
2022/03/31 09:56:49;;;;;;;17.10;13.53;;;10.60;99.40;;;;;;5054042;28;20481;-68
2022/03/31 09:59:16;;;;;;;16.07;12.93;;;10.60;99.40;;;;;;5053054;28;20408;-68
2022/03/31 10:01:43;;;;;;;18.27;15.13;;;10.60;98.10;;;;;;5053674;28;20448;-67
2022/03/31 10:04:12;;;;;;;17.60;14.47;;;10.60;98.50;;;;;;5052302;28;20451;-75
2022/03/31 10:06:40;;;;;;;19.90;14.87;;;10.70;99.00;;;;;;5053571;28;20753;-67
2022/03/31 10:09:07;;;;;;;21.03;15.07;;;10.30;98.40;;;;;;5053642;28;20424;-68
2022/03/31 10:11:36;;;;;;;21.80;13.67;;;10.70;97.90;;;;;;5052916;28;20503;-68
2022/03/31 10:14:07;;;;;;;21.37;15.00;;;10.60;97.60;;;;;;5053127;28;20410;-67
2022/03/31 10:16:47;;;;;;;17.67;13.17;;;10.80;97.70;;;;;;5052622;28;20416;-68
2022/03/31 10:19:29;;;;;;;23.57;15.00;;;10.80;97.50;;;;;;5052839;28;20402;-68
2022/03/31 10:25:09;;;;;;;20.07;14.37;;;11.10;98.00;;;;;;5053100;28;20774;-67
2022/03/31 10:27:38;;;;;;;19.00;15.30;;;11.10;97.50;;;;;;5053019;28;20457;-68
2022/03/31 10:30:19;;;;;;;17.77;14.33;;;11.20;96.00;;;;;;5053013;28;20819;-67
2022/03/31 10:32:50;;;;;;;17.77;13.50;;;10.80;95.00;;;;;;5053034;28;20969;-68
2022/03/31 10:35:23;;;;;;;23.03;14.10;;;10.90;95.20;;;;;;5052112;28;20506;-67
2022/03/31 10:37:49;;;;;;;20.40;13.20;;;10.90;95.60;;;;;;5052266;28;20447;-67
2022/03/31 10:40:26;;;;;;;17.40;13.73;;;10.90;94.70;;;;;;5052443;28;20447;-68
2022/03/31 10:42:55;;;;;;;18.33;14.93;;;11.00;94.70;;;;;;5053172;28;20181;-68
2022/03/31 10:45:33;;;;;;;19.73;14.53;;;11.10;94.80;;;;;;5052498;28;20741;-68
2022/03/31 10:47:59;;;;;;;18.20;13.47;;;11.10;94.40;;;;;;5052893;28;20731;-67
2022/03/31 10:50:28;;;;;;;19.00;13.50;;;11.10;94.80;;;;;;5052160;28;20416;-67
2022/03/31 10:52:59;;;;;;;19.00;13.90;;;11.00;94.10;;;;;;5052741;28;20227;-67
2022/03/31 10:55:37;;;;;;;16.47;13.30;;;11.00;94.00;;;;;;5052054;28;20462;-68
2022/03/31 10:58:05;;;;;;;20.13;14.10;;;11.00;93.80;;;;;;5052764;28;20494;-68
2022/03/31 11:00:30;;;;;;;19.90;13.67;;;11.10;95.00;;;;;;5052039;28;20434;-67
2022/03/31 11:02:56;;;;;;;17.37;13.00;;;11.20;94.70;;;;;;5052576;28;20775;-67
2022/03/31 11:05:23;;;;;;;16.30;12.60;;;11.10;93.60;;;;;;5052076;28;20188;-68
2022/03/31 11:07:48;;;;;;;20.43;14.13;;;11.20;93.00;;;;;;5052634;28;20177;-68
2022/03/31 11:10:18;;;;;;;15.97;13.43;;;11.20;94.20;;;;;;5050457;28;20962;-68
2022/03/31 11:12:44;;;;;;;19.83;13.87;;;11.20;93.80;;;;;;5052186;28;20173;-67
2022/03/31 11:15:12;;;;;;;16.47;14.00;;;11.30;93.90;;;;;;5050974;28;20471;-67
2022/03/31 11:17:41;;;;;;;16.70;12.53;;;11.30;93.40;;;;;;5052102;28;20534;-68
2022/03/31 11:20:22;;;;;;;20.43;14.50;;;11.10;91.90;;;;;;5052316;28;20426;-67
2022/03/31 11:22:54;;;;;;;17.77;13.93;;;11.10;92.10;;;;;;5052491;28;20418;-68
2022/03/31 11:25:21;;;;;;;16.93;14.07;;;11.10;93.70;;;;;;5051862;28;20422;-67
2022/03/31 11:27:48;;;;;;;18.67;14.63;;;11.20;94.90;;;;;;5052002;28;20408;-67
2022/03/31 11:30:19;;;;;;;21.40;15.67;;;11.10;94.20;;;;;;5050533;28;20525;-68
2022/03/31 11:32:54;;;;;;;19.90;14.97;;;11.20;95.40;;;;;;5051894;28;20420;-67
2022/03/31 11:35:24;;;;;;;20.80;15.57;;;11.10;95.70;;;;;;5055245;28;20459;-68
2022/03/31 11:38:01;;;;;;;18.77;13.87;;;11.10;94.70;;;;;;5056772;28;20507;-67
2022/03/31 11:40:34;;;;;;;16.77;12.70;;;11.10;94.00;;;;;;5055770;28;20416;-68
2022/03/31 11:43:02;;;;;;;18.20;14.57;;;11.10;93.30;;;;;;5054843;28;20415;-68
2022/03/31 11:45:36;;;;;;;20.93;15.53;;;11.40;93.00;;;;;;5055869;28;20473;-67
2022/03/31 11:48:08;;;;;;;20.00;14.30;;;11.00;93.30;;;;;;5056235;28;20418;-68
2022/03/31 11:50:38;;;;;;;21.30;15.00;;;11.00;92.90;;;;;;5054327;28;20400;-67
2022/03/31 11:53:16;;;;;;;19.70;16.30;;;10.80;93.30;;;;;;5056418;28;20420;-68
2022/03/31 11:55:42;;;;;;;18.93;14.60;;;10.80;94.70;;;;;;5056090;28;20459;-68
2022/03/31 11:58:08;;;;;;;21.30;16.10;;;10.90;95.20;;;;;;5056015;28;20416;-67
2022/03/31 12:00:34;;;;;;;19.37;15.40;;;10.90;94.70;;;;;;5055466;28;20412;-67
2022/03/31 12:03:09;;;;;;;19.03;15.60;;;10.90;94.40;;;;;;5055699;28;20515;-67
2022/03/31 12:05:35;;;;;;;18.70;14.57;;;10.90;94.10;;;;;;5055178;28;20404;-67
2022/03/31 12:08:02;;;;;;;20.03;16.87;;;10.90;94.80;;;;;;5056097;28;20417;-68
2022/03/31 12:10:30;;;;;;;19.07;16.17;;;10.90;95.00;;;;;;5055202;28;20416;-67
2022/03/31 12:12:59;;;;;;;24.77;17.70;;;10.90;94.80;;;;;;5055528;28;20798;-67
2022/03/31 12:15:27;;;;;;;21.30;17.67;;;11.00;95.50;;;;;;5053832;28;20460;-67
2022/03/31 12:18:03;;;;;;;23.00;17.30;;;11.00;95.50;;;;;;5055638;28;20416;-67
2022/03/31 12:20:30;;;;;;;24.50;18.17;;;11.00;95.50;;;;;;5054848;28;20473;-68
2022/03/31 12:22:56;;;;;;;20.17;16.53;;;10.90;95.70;;;;;;5055458;28;20437;-67
2022/03/31 12:25:33;;;;;;;20.87;16.83;;;10.90;96.60;;;;;;5054378;28;20434;-72
2022/03/31 12:28:03;;;;;;;21.50;17.23;;;11.00;97.60;;;;;;5055059;28;20404;-68
2022/03/31 12:30:57;;;;;;;21.57;16.80;;;11.00;97.40;;;;;;5053934;28;20439;-68
2022/03/31 12:33:31;;;;;;;21.00;15.93;;;11.10;97.70;;;;;;5045598;28;20565;-68
2022/03/31 12:36:06;;;;;;;20.60;15.63;;;11.00;96.80;;;;;;5054967;28;20482;-68
2022/03/31 12:38:42;;;;;;;20.63;16.63;;;11.10;96.30;;;;;;5054382;28;20719;-67
2022/03/31 12:41:48;;;;;;;22.23;17.40;;;11.20;96.90;;;;;;5055381;28;20403;-67